PWSweather.com
Personal Weather Stations
Station Observations
KMIEASTT1
Tawas Bay, East Tawas, MI 48730

Tawas BayEast Tawas, MI 48730

Lat: 44.28, Lon: -83.48

Elevation: 600

Station Type: Davis VantagePro

http://www.tawasbayweather.com

Latest ConditionsUpdated 8:45:09 PM EST Wednesday, Jan 16, 2019
Currently Today's Max Today's Min Today's Average
Temperature 16.0°F-8.9°C 31.9°F-0.1°C 16.0°F-8.9°C 24.3°F-4.3°C
Dew Point 10.4°F-12.0°C 29.4°F-1.4°C 8.8°F-12.9°C 16.2°F-8.8°C
Winds 1.0 mph NNW1.6 kmh NNW 19.0 mph -30.6 kmh - - 4.1 mph 6.6 kmh
Wind Gusts 2.0 mph3.2 kmh 22.0 mph35.4 kmh - -
Humidity 78% 94% 53% 72%
Pressure 30.40 in1029.5 mb 30.40 in1029.5 mb 29.90 in1012.5 mb -
Hour Temp Dew Point Humidity Winds Wind Gusts Pressure Precip Precip Rate Daily Precip Total
08:45 PM 16.0°F-8.9°C 10.4°F-12.0°C 78% 1.0 mph NNW1.6 kmh NNW 2.0 mph3.2 kmh 30.40 in1029.5 mb 0.00 in0.0 mm 0.00 in0.0 mm 0.00 in0.0 mm
08:30 PM 16.4°F-8.7°C 10.8°F-11.8°C 78% 1.0 mph NNW1.6 kmh NNW 2.0 mph3.2 kmh 30.40 in1029.5 mb 0.00 in0.0 mm 0.00 in0.0 mm 0.00 in0.0 mm
08:15 PM 17.2°F-8.2°C 11.0°F-11.7°C 76% 1.0 mph NNW1.6 kmh NNW 2.0 mph3.2 kmh 30.40 in1029.5 mb 0.00 in0.0 mm 0.00 in0.0 mm 0.00 in0.0 mm
08:00 PM 17.9°F-7.8°C 11.0°F-11.7°C 74% Calm Calm 1.0 mph1.6 kmh 30.39 in1029.1 mb 0.00 in0.0 mm 0.00 in0.0 mm 0.00 in0.0 mm
07:45 PM 18.4°F-7.6°C 10.9°F-11.7°C 72% Calm Calm 1.0 mph1.6 kmh 30.39 in1029.1 mb 0.00 in0.0 mm 0.00 in0.0 mm 0.00 in0.0 mm
07:30 PM 18.8°F-7.3°C 11.0°F-11.7°C 71% Calm Calm 1.0 mph1.6 kmh 30.39 in1029.1 mb 0.00 in0.0 mm 0.00 in0.0 mm 0.00 in0.0 mm
07:15 PM 19.3°F-7.1°C 11.5°F-11.4°C 71% Calm Calm 2.0 mph3.2 kmh 30.38 in1028.8 mb 0.00 in0.0 mm 0.00 in0.0 mm 0.00 in0.0 mm
07:00 PM 19.9°F-6.7°C 11.4°F-11.4°C 69% Calm Calm 1.0 mph1.6 kmh 30.38 in1028.8 mb 0.00 in0.0 mm 0.00 in0.0 mm 0.00 in0.0 mm
06:45 PM 20.2°F-6.6°C 11.0°F-11.7°C 67% Calm Calm -- 30.37 in1028.4 mb 0.00 in0.0 mm 0.00 in0.0 mm 0.00 in0.0 mm
06:30 PM 20.6°F-6.3°C 11.4°F-11.4°C 67% Calm Calm -- 30.37 in1028.4 mb 0.00 in0.0 mm 0.00 in0.0 mm 0.00 in0.0 mm
06:15 PM 20.8°F-6.2°C 11.6°F-11.3°C 67% Calm Calm -- 30.37 in1028.4 mb 0.00 in0.0 mm 0.00 in0.0 mm 0.00 in0.0 mm
06:00 PM 21.1°F-6.1°C 11.2°F-11.6°C 65% Calm Calm -- 30.36 in1028.1 mb 0.00 in0.0 mm 0.00 in0.0 mm 0.00 in0.0 mm
05:45 PM 21.3°F-5.9°C 11.0°F-11.7°C 64% Calm Calm -- 30.35 in1027.8 mb 0.00 in0.0 mm 0.00 in0.0 mm 0.00 in0.0 mm
05:30 PM 21.8°F-5.7°C 10.4°F-12.0°C 61% Calm Calm -- 30.35 in1027.8 mb 0.00 in0.0 mm 0.00 in0.0 mm 0.00 in0.0 mm
05:15 PM 22.8°F-5.1°C 10.3°F-12.1°C 58% Calm Calm -- 30.34 in1027.4 mb 0.00 in0.0 mm 0.00 in0.0 mm 0.00 in0.0 mm
05:00 PM 23.8°F-4.6°C 10.0°F-12.2°C 55% Calm Calm -- 30.34 in1027.4 mb 0.00 in0.0 mm 0.00 in0.0 mm 0.00 in0.0 mm
04:45 PM 24.3°F-4.3°C 10.5°F-11.9°C 55% Calm Calm -- 30.34 in1027.4 mb 0.00 in0.0 mm 0.00 in0.0 mm 0.00 in0.0 mm
04:30 PM 24.5°F-4.2°C 9.8°F-12.3°C 53% Calm Calm -- 30.34 in1027.4 mb 0.00 in0.0 mm 0.00 in0.0 mm 0.00 in0.0 mm
04:15 PM 24.8°F-4.0°C 10.5°F-11.9°C 54% Calm Calm -- 30.33 in1027.1 mb 0.00 in0.0 mm 0.00 in0.0 mm 0.00 in0.0 mm
04:00 PM 24.1°F-4.4°C 9.5°F-12.5°C 53% Calm Calm -- 30.33 in1027.1 mb 0.00 in0.0 mm 0.00 in0.0 mm 0.00 in0.0 mm
03:45 PM 24.7°F-4.1°C 10.0°F-12.2°C 53% Calm Calm -- 30.32 in1026.8 mb 0.00 in0.0 mm 0.00 in0.0 mm 0.00 in0.0 mm
03:30 PM 24.9°F-3.9°C 10.6°F-11.9°C 54% Calm Calm -- 30.32 in1026.8 mb 0.00 in0.0 mm 0.00 in0.0 mm 0.00 in0.0 mm
03:15 PM 23.4°F-4.8°C 8.8°F-12.9°C 53% Calm Calm -- 30.31 in1026.4 mb 0.00 in0.0 mm 0.00 in0.0 mm 0.00 in0.0 mm
03:00 PM 24.0°F-4.4°C 9.4°F-12.6°C 53% Calm Calm -- 30.32 in1026.8 mb 0.00 in0.0 mm 0.00 in0.0 mm 0.00 in0.0 mm
02:45 PM 24.5°F-4.2°C 9.8°F-12.3°C 53% Calm Calm -- 30.31 in1026.4 mb 0.00 in0.0 mm 0.00 in0.0 mm 0.00 in0.0 mm
02:30 PM 23.8°F-4.6°C 9.2°F-12.7°C 53% Calm Calm -- 30.30 in1026.1 mb 0.00 in0.0 mm 0.00 in0.0 mm 0.00 in0.0 mm
02:15 PM 23.9°F-4.5°C 10.9°F-11.7°C 57% Calm Calm -- 30.30 in1026.1 mb 0.00 in0.0 mm 0.00 in0.0 mm 0.00 in0.0 mm
02:00 PM 23.2°F-4.9°C 9.0°F-12.8°C 54% Calm Calm -- 30.29 in1025.7 mb 0.00 in0.0 mm 0.00 in0.0 mm 0.00 in0.0 mm
01:45 PM 23.7°F-4.6°C 10.3°F-12.1°C 56% Calm Calm -- 30.29 in1025.7 mb 0.00 in0.0 mm 0.00 in0.0 mm 0.00 in0.0 mm
01:31 PM 24.1°F-4.4°C 10.3°F-12.1°C 55% Calm Calm -- 30.29 in1025.7 mb 0.00 in0.0 mm 0.00 in0.0 mm 0.00 in0.0 mm
01:15 PM 23.1°F-4.9°C 9.8°F-12.3°C 56% Calm Calm -- 30.30 in1026.1 mb 0.00 in0.0 mm 0.00 in0.0 mm 0.00 in0.0 mm
01:00 PM 23.4°F-4.8°C 10.4°F-12.0°C 57% Calm Calm -- 30.30 in1026.1 mb 0.00 in0.0 mm 0.00 in0.0 mm 0.00 in0.0 mm
12:45 PM 22.4°F-5.3°C 10.6°F-11.9°C 60% Calm Calm -- 30.30 in1026.1 mb 0.00 in0.0 mm 0.00 in0.0 mm 0.00 in0.0 mm
12:30 PM 22.1°F-5.5°C 9.6°F-12.4°C 58% Calm Calm -- 30.30 in1026.1 mb 0.00 in0.0 mm 0.00 in0.0 mm 0.00 in0.0 mm
12:15 PM 21.8°F-5.7°C 10.1°F-12.2°C 60% Calm Calm -- 30.31 in1026.4 mb 0.00 in0.0 mm 0.00 in0.0 mm 0.00 in0.0 mm
12:00 PM 21.1°F-6.1°C 10.1°F-12.2°C 62% Calm Calm -- 30.30 in1026.1 mb 0.00 in0.0 mm 0.00 in0.0 mm 0.00 in0.0 mm
11:45 AM 20.3°F-6.5°C 9.4°F-12.6°C 62% Calm Calm -- 30.31 in1026.4 mb 0.00 in0.0 mm 0.00 in0.0 mm 0.00 in0.0 mm
11:30 AM 19.9°F-6.7°C 9.0°F-12.8°C 62% Calm Calm -- 30.30 in1026.1 mb 0.00 in0.0 mm 0.00 in0.0 mm 0.00 in0.0 mm
11:15 AM 19.5°F-6.9°C 9.0°F-12.8°C 63% Calm Calm -- 30.30 in1026.1 mb 0.00 in0.0 mm 0.00 in0.0 mm 0.00 in0.0 mm
11:00 AM 20.0°F-6.7°C 10.1°F-12.2°C 65% Calm Calm -- 30.30 in1026.1 mb 0.00 in0.0 mm 0.00 in0.0 mm 0.00 in0.0 mm
10:45 AM 20.0°F-6.7°C 10.8°F-11.8°C 67% Calm Calm -- 30.29 in1025.7 mb 0.00 in0.0 mm 0.00 in0.0 mm 0.00 in0.0 mm
10:30 AM 19.8°F-6.8°C 10.6°F-11.9°C 67% Calm Calm 11.0 mph17.7 kmh 30.27 in1025.1 mb 0.00 in0.0 mm 0.00 in0.0 mm 0.00 in0.0 mm
10:15 AM 19.5°F-6.9°C 11.0°F-11.7°C 69% 6.0 mph NW9.7 kmh NW 10.0 mph16.1 kmh 30.26 in1024.7 mb 0.00 in0.0 mm 0.00 in0.0 mm 0.00 in0.0 mm
10:00 AM 19.4°F-7.0°C 10.9°F-11.7°C 69% 6.0 mph NNW9.7 kmh NNW 11.0 mph17.7 kmh 30.25 in1024.4 mb 0.00 in0.0 mm 0.00 in0.0 mm 0.00 in0.0 mm
09:45 AM 19.2°F-7.1°C 10.7°F-11.8°C 69% 5.0 mph NW8.0 kmh NW 13.0 mph20.9 kmh 30.24 in1024.0 mb 0.00 in0.0 mm 0.00 in0.0 mm 0.00 in0.0 mm
09:30 AM 19.1°F-7.2°C 11.3°F-11.5°C 71% 6.0 mph N9.7 kmh N 14.0 mph22.5 kmh 30.23 in1023.7 mb 0.00 in0.0 mm 0.00 in0.0 mm 0.00 in0.0 mm
09:15 AM 19.5°F-6.9°C 12.6°F-10.8°C 74% 4.0 mph NW6.4 kmh NW 10.0 mph16.1 kmh 30.21 in1023.0 mb 0.00 in0.0 mm 0.00 in0.0 mm 0.00 in0.0 mm
09:00 AM 19.5°F-6.9°C 12.6°F-10.8°C 74% 7.0 mph NW11.3 kmh NW 9.0 mph14.5 kmh 30.20 in1022.7 mb 0.00 in0.0 mm 0.00 in0.0 mm 0.00 in0.0 mm
08:45 AM 19.4°F-7.0°C 12.5°F-10.8°C 74% 2.0 mph N3.2 kmh N 6.0 mph9.7 kmh 30.20 in1022.7 mb 0.00 in0.0 mm 0.00 in0.0 mm 0.00 in0.0 mm
08:30 AM 19.3°F-7.1°C 12.1°F-11.1°C 73% 6.0 mph NW9.7 kmh NW 9.0 mph14.5 kmh 30.19 in1022.4 mb 0.00 in0.0 mm 0.00 in0.0 mm 0.00 in0.0 mm
08:15 AM 19.5°F-6.9°C 12.3°F-10.9°C 73% 7.0 mph NW11.3 kmh NW 10.0 mph16.1 kmh 30.17 in1021.7 mb 0.00 in0.0 mm 0.00 in0.0 mm 0.00 in0.0 mm
08:00 AM 20.4°F-6.4°C 13.5°F-10.3°C 74% 5.0 mph NW8.0 kmh NW 13.0 mph20.9 kmh 30.16 in1021.3 mb 0.00 in0.0 mm 0.00 in0.0 mm 0.00 in0.0 mm
07:45 AM 21.5°F-5.8°C 14.8°F-9.6°C 75% 4.0 mph NW6.4 kmh NW 10.0 mph16.1 kmh 30.15 in1021.0 mb 0.00 in0.0 mm 0.00 in0.0 mm 0.00 in0.0 mm
07:30 AM 22.1°F-5.5°C 15.4°F-9.2°C 75% 8.0 mph NW12.9 kmh NW 11.0 mph17.7 kmh 30.13 in1020.3 mb 0.00 in0.0 mm 0.00 in0.0 mm 0.00 in0.0 mm
07:15 AM 22.9°F-5.1°C 16.2°F-8.8°C 75% 8.0 mph NW12.9 kmh NW 13.0 mph20.9 kmh 30.11 in1019.6 mb 0.00 in0.0 mm 0.00 in0.0 mm 0.00 in0.0 mm
07:00 AM 23.7°F-4.6°C 17.0°F-8.3°C 75% 5.0 mph WNW8.0 kmh WNW 15.0 mph24.1 kmh 30.09 in1019.0 mb 0.00 in0.0 mm 0.00 in0.0 mm 0.00 in0.0 mm
06:45 AM 24.3°F-4.3°C 17.2°F-8.2°C 74% 12.0 mph WNW19.3 kmh WNW 14.0 mph22.5 kmh 30.09 in1019.0 mb 0.00 in0.0 mm 0.00 in0.0 mm 0.00 in0.0 mm
06:30 AM 25.2°F-3.8°C 18.1°F-7.7°C 74% 8.0 mph NW12.9 kmh NW 14.0 mph22.5 kmh 30.08 in1018.6 mb 0.00 in0.0 mm 0.00 in0.0 mm 0.00 in0.0 mm
06:15 AM 25.9°F-3.4°C 19.1°F-7.2°C 75% 8.0 mph NW12.9 kmh NW 18.0 mph29.0 kmh 30.07 in1018.3 mb 0.00 in0.0 mm 0.00 in0.0 mm 0.00 in0.0 mm
06:00 AM 28.1°F-2.2°C 23.0°F-5.0°C 81% 3.0 mph NNW4.8 kmh NNW 7.0 mph11.3 kmh 30.06 in1017.9 mb 0.00 in0.0 mm 0.00 in0.0 mm 0.00 in0.0 mm
05:45 AM 28.7°F-1.8°C 23.0°F-5.0°C 79% 8.0 mph NW12.9 kmh NW 11.0 mph17.7 kmh 30.04 in1017.3 mb 0.00 in0.0 mm 0.00 in0.0 mm 0.00 in0.0 mm
05:30 AM 29.8°F-1.2°C 23.8°F-4.6°C 78% 19.0 mph WNW30.6 kmh WNW 22.0 mph35.4 kmh 30.03 in1016.9 mb 0.00 in0.0 mm 0.00 in0.0 mm 0.00 in0.0 mm
05:15 AM 31.2°F-0.4°C 25.2°F-3.8°C 78% 5.0 mph NW8.0 kmh NW 10.0 mph16.1 kmh 30.01 in1016.3 mb 0.00 in0.0 mm 0.00 in0.0 mm 0.00 in0.0 mm
05:00 AM 31.5°F-0.3°C 24.2°F-4.3°C 74% 6.0 mph WSW9.7 kmh WSW 12.0 mph19.3 kmh 29.98 in1015.2 mb 0.00 in0.0 mm 0.00 in0.0 mm 0.00 in0.0 mm
04:45 AM 31.6°F-0.2°C 24.9°F-3.9°C 76% 6.0 mph WNW9.7 kmh WNW 14.0 mph22.5 kmh 29.97 in1014.9 mb 0.00 in0.0 mm 0.00 in0.0 mm 0.00 in0.0 mm
04:30 AM 31.6°F-0.2°C 25.2°F-3.8°C 77% 11.0 mph W17.7 kmh W 15.0 mph24.1 kmh 29.97 in1014.9 mb 0.00 in0.0 mm 0.00 in0.0 mm 0.00 in0.0 mm
04:15 AM 31.7°F-0.2°C 27.4°F-2.6°C 84% 8.0 mph NW12.9 kmh NW 14.0 mph22.5 kmh 29.97 in1014.9 mb 0.00 in0.0 mm 0.00 in0.0 mm 0.00 in0.0 mm
04:00 AM 31.8°F-0.1°C 28.1°F-2.2°C 86% 4.0 mph WNW6.4 kmh WNW 15.0 mph24.1 kmh 29.96 in1014.6 mb 0.00 in0.0 mm 0.00 in0.0 mm 0.00 in0.0 mm
03:45 AM 31.9°F-0.1°C 28.5°F-1.9°C 87% 13.0 mph W20.9 kmh W 13.0 mph20.9 kmh 29.95 in1014.2 mb 0.00 in0.0 mm 0.00 in0.0 mm 0.00 in0.0 mm
03:30 AM 31.7°F-0.2°C 29.1°F-1.6°C 90% 11.0 mph SW17.7 kmh SW 15.0 mph24.1 kmh 29.94 in1013.9 mb 0.00 in0.0 mm 0.00 in0.0 mm 0.00 in0.0 mm
03:15 AM 31.4°F-0.3°C 29.4°F-1.4°C 92% 7.0 mph WSW11.3 kmh WSW 11.0 mph17.7 kmh 29.94 in1013.9 mb 0.00 in0.0 mm 0.00 in0.0 mm 0.00 in0.0 mm
03:00 AM 31.4°F-0.3°C 29.4°F-1.4°C 92% 6.0 mph W9.7 kmh W 10.0 mph16.1 kmh 29.94 in1013.9 mb 0.00 in0.0 mm 0.00 in0.0 mm 0.00 in0.0 mm
02:45 AM 31.2°F-0.4°C 29.4°F-1.4°C 93% 6.0 mph WSW9.7 kmh WSW 9.0 mph14.5 kmh 29.93 in1013.5 mb 0.00 in0.0 mm 0.00 in0.0 mm 0.00 in0.0 mm
02:30 AM 31.1°F-0.5°C 29.3°F-1.5°C 93% 9.0 mph NW14.5 kmh NW 13.0 mph20.9 kmh 29.92 in1013.2 mb 0.00 in0.0 mm 0.00 in0.0 mm 0.00 in0.0 mm
02:15 AM 31.2°F-0.4°C 29.4°F-1.4°C 93% 9.0 mph WSW14.5 kmh WSW 11.0 mph17.7 kmh 29.91 in1012.9 mb 0.00 in0.0 mm 0.00 in0.0 mm 0.00 in0.0 mm
02:00 AM 31.2°F-0.4°C 29.2°F-1.6°C 92% 10.0 mph WSW16.1 kmh WSW 15.0 mph24.1 kmh 29.91 in1012.9 mb 0.00 in0.0 mm 0.00 in0.0 mm 0.00 in0.0 mm
01:45 AM 31.1°F-0.5°C 29.1°F-1.6°C 92% 11.0 mph WSW17.7 kmh WSW 16.0 mph25.7 kmh 29.90 in1012.5 mb 0.00 in0.0 mm 0.00 in0.0 mm 0.00 in0.0 mm
01:30 AM 31.1°F-0.5°C 29.1°F-1.6°C 92% 13.0 mph WSW20.9 kmh WSW 15.0 mph24.1 kmh 29.90 in1012.5 mb 0.00 in0.0 mm 0.00 in0.0 mm 0.00 in0.0 mm
01:15 AM 31.0°F-0.6°C 29.2°F-1.6°C 93% 11.0 mph SW17.7 kmh SW 16.0 mph25.7 kmh 29.90 in1012.5 mb 0.00 in0.0 mm 0.00 in0.0 mm 0.00 in0.0 mm
01:00 AM 30.9°F-0.6°C 29.1°F-1.6°C 93% 17.0 mph WSW27.4 kmh WSW 17.0 mph27.4 kmh 29.90 in1012.5 mb 0.00 in0.0 mm 0.00 in0.0 mm 0.00 in0.0 mm
12:45 AM 30.7°F-0.7°C 29.2°F-1.6°C 94% 13.0 mph WSW20.9 kmh WSW 14.0 mph22.5 kmh 29.91 in1012.9 mb 0.00 in0.0 mm 0.00 in0.0 mm 0.00 in0.0 mm
12:30 AM 30.6°F-0.8°C 29.1°F-1.6°C 94% 10.0 mph WSW16.1 kmh WSW 13.0 mph20.9 kmh 29.91 in1012.9 mb 0.00 in0.0 mm 0.00 in0.0 mm 0.00 in0.0 mm
12:15 AM 30.5°F-0.8°C 29.0°F-1.7°C 94% 10.0 mph SW16.1 kmh SW 14.0 mph22.5 kmh 29.91 in1012.9 mb 0.00 in0.0 mm 0.00 in0.0 mm 0.00 in0.0 mm
12:00 AM 30.5°F-0.8°C 29.0°F-1.7°C 94% 11.0 mph WSW17.7 kmh WSW 15.0 mph24.1 kmh 29.91 in1012.9 mb 0.00 in0.0 mm 0.00 in0.0 mm 0.00 in0.0 mm